Time;durP1;ratioP1;P1;durP2;ratioP2;P2;SDS_P1;SDS_P2;PMS_P1;PMS_P2;Temp;Humidity;BMP_temperature;BMP_pressure;BME280_temperature;BME280_humidity;BME280_pressure;Samples;Min_cycle;Max_cycle;Signal;HPM_P1;HPM_P2
2023/07/07 00:00:13;;;;;;;7.10;4.00;;;;;;;20.07;77.14;98495.08;106133;1260;61189;-86
2023/07/07 00:02:43;;;;;;;5.90;3.80;;;;;;;20.02;77.56;98495.55;106059;1260;72422;-85
2023/07/07 00:05:19;;;;;;;5.10;4.10;;;;;;;19.99;77.82;98500.28;107257;1260;74281;-86
2023/07/07 00:07:57;;;;;;;7.20;3.90;;;;;;;19.94;77.59;98503.51;108118;1260;71990;-86
2023/07/07 00:10:25;;;;;;;4.60;4.10;;;;;;;19.90;77.80;98502.49;107591;1260;61892;-85
2023/07/07 00:12:55;;;;;;;6.70;3.90;;;;;;;19.86;77.78;98502.03;107737;1260;61129;-86
2023/07/07 00:15:27;;;;;;;6.00;3.40;;;;;;;19.83;78.17;98504.01;107788;1260;73092;-85
2023/07/07 00:17:58;;;;;;;3.90;3.50;;;;;;;19.81;78.39;98510.15;105574;1265;75070;-85
2023/07/07 00:20:25;;;;;;;4.20;3.80;;;;;;;19.79;77.91;98511.44;105454;1260;72825;-86
2023/07/07 00:22:59;;;;;;;5.70;3.40;;;;;;;19.77;77.84;98513.84;105373;1261;61059;-85
2023/07/07 00:25:37;;;;;;;5.40;3.60;;;;;;;19.73;77.20;98515.90;105202;1260;61267;-86
2023/07/07 00:28:12;;;;;;;4.40;3.60;;;;;;;19.67;77.46;98516.55;105233;1260;73921;-87
2023/07/07 00:30:39;;;;;;;5.70;4.10;;;;;;;19.61;77.24;98519.38;105287;1264;74212;-85
2023/07/07 00:33:09;;;;;;;5.70;3.40;;;;;;;19.55;77.60;98516.52;105149;1266;73573;-87
2023/07/07 00:35:46;;;;;;;3.40;3.10;;;;;;;19.53;77.94;98517.83;105342;1256;61087;-85
2023/07/07 00:38:21;;;;;;;4.40;3.60;;;;;;;19.49;78.46;98519.96;105331;1257;61146;-87
2023/07/07 00:40:53;;;;;;;5.20;3.50;;;;;;;19.46;78.74;98519.98;105586;1256;73596;-86
2023/07/07 00:43:22;;;;;;;3.30;3.00;;;;;;;19.42;79.05;98522.88;105650;1260;74436;-87
2023/07/07 00:46:03;;;;;;;5.10;3.50;;;;;;;19.37;79.48;98531.80;105446;1257;71634;-86
2023/07/07 00:48:42;;;;;;;3.80;3.30;;;;;;;19.32;79.70;98535.27;105454;1256;61161;-86
2023/07/07 00:51:30;;;;;;;4.30;3.60;;;;;;;19.25;79.74;98533.55;105468;1257;62523;-87
2023/07/07 00:54:03;;;;;;;4.80;4.30;;;;;;;19.19;79.68;98539.08;105391;1257;73774;-86
2023/07/07 00:56:41;;;;;;;5.40;3.80;;;;;;;19.14;80.09;98540.54;105537;1257;74293;-86
2023/07/07 00:59:33;;;;;;;4.10;2.90;;;;;;;19.07;81.17;98542.65;105236;1263;74591;-88
2023/07/07 01:02:13;;;;;;;9.00;3.70;;;;;;;19.02;82.48;98538.86;105066;1259;61181;-88
2023/07/07 01:04:43;;;;;;;5.60;4.00;;;;;;;18.95;83.66;98538.87;105368;1259;61344;-86
2023/07/07 01:07:28;;;;;;;6.70;3.90;;;;;;;18.90;85.08;98538.56;105197;1259;75212;-84
2023/07/07 01:10:22;;;;;;;6.20;3.40;;;;;;;18.85;86.24;98536.23;105260;1265;75558;-85
2023/07/07 01:13:03;;;;;;;4.20;3.50;;;;;;;18.79;86.43;98533.90;105302;1259;72351;-85
2023/07/07 01:16:01;;;;;;;4.40;3.60;;;;;;;18.73;86.93;98533.60;105269;1260;61869;-88
2023/07/07 01:19:03;;;;;;;6.10;4.00;;;;;;;18.62;86.36;98532.71;105369;1259;61645;-89
2023/07/07 01:22:03;;;;;;;5.40;3.70;;;;;;;18.50;86.99;98531.73;105611;1259;74830;-87
2023/07/07 01:25:36;;;;;;;4.50;3.70;;;;;;;18.38;87.47;98527.61;105175;1260;73267;-88
2023/07/07 01:28:48;;;;;;;4.20;3.50;;;;;;;18.28;88.10;98530.58;107556;1261;71612;-88
2023/07/07 01:31:40;;;;;;;4.80;3.80;;;;;;;18.23;88.71;98533.52;106985;1260;61097;-87
2023/07/07 01:34:21;;;;;;;5.10;3.80;;;;;;;18.19;89.08;98526.61;105283;1265;61231;-87
2023/07/07 01:37:00;;;;;;;4.80;3.30;;;;;;;18.15;89.27;98531.52;105168;1261;73672;-86
2023/07/07 01:39:35;;;;;;;5.60;4.20;;;;;;;18.12;89.64;98531.34;105466;1261;74406;-83
2023/07/07 01:42:31;;;;;;;5.50;3.30;;;;;;;18.09;90.01;98531.11;106210;1263;74007;-83
2023/07/07 01:45:03;;;;;;;4.30;3.90;;;;;;;18.05;90.72;98530.48;106180;1265;61246;-83
2023/07/07 01:47:36;;;;;;;7.30;3.80;;;;;;;18.03;91.71;98529.77;106196;1269;61286;-84
2023/07/07 01:50:24;;;;;;;3.60;3.30;;;;;;;18.00;92.24;98529.36;106805;1266;73784;-84
2023/07/07 01:53:10;;;;;;;5.00;3.40;;;;;;;17.95;92.52;98525.84;106348;1267;72868;-86
2023/07/07 01:55:50;;;;;;;3.20;2.90;;;;;;;17.91;92.52;98524.61;108283;1267;72557;-86
2023/07/07 01:58:43;;;;;;;7.00;4.00;;;;;;;17.86;92.96;98519.64;105570;1269;61207;-87
2023/07/07 02:01:21;;;;;;;4.60;3.80;;;;;;;17.82;93.39;98520.41;107978;1267;60227;-86
2023/07/07 02:03:58;;;;;;;7.90;3.60;;;;;;;17.81;93.89;98523.23;108527;1262;72602;-86
2023/07/07 02:06:29;;;;;;;4.20;3.40;;;;;;;17.80;93.85;98525.15;108708;1262;73434;-85
2023/07/07 02:09:06;;;;;;;4.30;3.30;;;;;;;17.80;94.04;98523.56;108691;1262;71412;-86
2023/07/07 02:11:39;;;;;;;6.60;3.50;;;;;;;17.80;94.10;98527.70;107577;1262;60377;-83
2023/07/07 02:14:06;;;;;;;4.20;2.90;;;;;;;17.79;94.09;98525.46;107679;1263;60687;-85
2023/07/07 02:16:37;;;;;;;4.70;3.40;;;;;;;17.77;93.95;98528.29;107714;1263;72656;-85
2023/07/07 02:19:27;;;;;;;4.30;3.70;;;;;;;17.75;93.92;98534.50;107528;1263;74271;-84
2023/07/07 02:22:03;;;;;;;3.60;3.30;;;;;;;17.74;94.10;98529.52;106281;1264;72672;-87
2023/07/07 02:24:31;;;;;;;5.10;3.60;;;;;;;17.73;94.14;98531.39;107628;1257;61017;-83
2023/07/07 02:27:01;;;;;;;4.90;3.70;;;;;;;17.73;93.84;98526.23;108699;1258;59609;-85
2023/07/07 02:29:32;;;;;;;5.70;3.30;;;;;;;17.73;93.77;98530.02;106387;1260;72527;-85
2023/07/07 02:32:02;;;;;;;5.40;3.60;;;;;;;17.73;94.07;98528.77;106284;1260;73011;-82
2023/07/07 02:34:30;;;;;;;4.00;3.10;;;;;;;17.74;94.75;98531.92;105641;1260;72785;-86
2023/07/07 02:37:18;;;;;;;4.20;3.40;;;;;;;17.71;94.96;98530.02;105374;1260;61784;-84
2023/07/07 02:39:54;;;;;;;4.40;3.40;;;;;;;17.68;95.46;98535.27;105709;1260;61222;-85
2023/07/07 02:42:27;;;;;;;4.90;3.70;;;;;;;17.65;95.69;98535.40;105846;1260;73883;-84
2023/07/07 02:45:18;;;;;;;4.10;3.40;;;;;;;17.62;96.68;98538.58;106131;1256;75576;-85
2023/07/07 02:47:46;;;;;;;5.00;4.00;;;;;;;17.60;97.28;98538.08;106011;1260;72523;-85
2023/07/07 02:50:24;;;;;;;5.10;3.90;;;;;;;17.59;97.45;98540.73;105735;1260;61104;-85
2023/07/07 02:52:55;;;;;;;4.70;3.10;;;;;;;17.57;97.55;98545.09;106400;1256;61128;-85
2023/07/07 02:55:23;;;;;;;5.10;4.00;;;;;;;17.57;98.28;98548.40;106168;1256;73437;-86
2023/07/07 02:57:54;;;;;;;5.80;3.80;;;;;;;17.57;98.70;98548.74;106189;1256;74338;-86
2023/07/07 03:00:23;;;;;;;4.00;3.60;;;;;;;17.58;99.16;98548.77;106162;1256;73648;-85
2023/07/07 03:02:52;;;;;;;4.00;3.10;;;;;;;17.59;99.08;98545.96;106033;1256;61908;-88
2023/07/07 03:05:24;;;;;;;6.20;3.20;;;;;;;17.59;99.21;98547.66;105867;1256;61220;-85
2023/07/07 03:08:01;;;;;;;3.80;3.40;;;;;;;17.57;99.26;98548.58;106044;1260;73590;-85
2023/07/07 03:10:50;;;;;;;5.40;3.80;;;;;;;17.51;99.49;98549.61;107053;1257;76117;-86
2023/07/07 03:13:33;;;;;;;5.10;4.00;;;;;;;17.46;99.21;98553.82;105845;1262;72429;-84
2023/07/07 03:16:21;;;;;;;5.90;3.50;;;;;;;17.41;99.69;98563.98;106125;1263;61462;-83
2023/07/07 03:18:57;;;;;;;4.40;3.90;;;;;;;17.35;99.62;98561.32;106197;1263;61280;-84
2023/07/07 03:21:42;;;;;;;4.70;3.90;;;;;;;17.28;99.85;98564.70;106841;1262;73064;-85
2023/07/07 03:24:30;;;;;;;4.80;3.40;;;;;;;17.18;100.00;98564.16;106749;1259;72709;-85
2023/07/07 03:27:09;;;;;;;7.10;4.60;;;;;;;17.08;100.00;98570.69;106464;1259;70142;-86
2023/07/07 03:29:40;;;;;;;6.30;4.20;;;;;;;17.02;100.00;98583.42;105281;1262;61143;-86
2023/07/07 03:32:16;;;;;;;5.30;4.40;;;;;;;16.97;100.00;98590.31;105237;1262;61253;-89
2023/07/07 03:35:01;;;;;;;6.00;5.10;;;;;;;16.96;100.00;98588.94;104951;1263;72525;-92
2023/07/07 03:37:42;;;;;;;5.10;4.20;;;;;;;16.93;100.00;98590.89;104961;1264;73897;-93
2023/07/07 03:40:28;;;;;;;7.80;4.40;;;;;;;16.90;100.00;98590.68;104962;1262;70691;-92
2023/07/07 03:43:00;;;;;;;5.20;4.50;;;;;;;16.86;100.00;98595.35;104940;1264;62191;-93
2023/07/07 03:45:34;;;;;;;6.30;4.20;;;;;;;16.83;100.00;98605.40;105303;1259;61843;-93
2023/07/07 03:48:07;;;;;;;6.30;4.50;;;;;;;16.80;100.00;98609.44;105281;1260;74653;-92
2023/07/07 03:51:01;;;;;;;10.40;4.10;;;;;;;16.77;100.00;98604.46;105263;1260;74177;-94
2023/07/07 03:53:38;;;;;;;5.30;4.10;;;;;;;16.71;100.00;98603.73;105234;1260;71531;-93
2023/07/07 03:56:21;;;;;;;4.50;3.50;;;;;;;16.65;100.00;98605.39;105129;1265;61897;-92
2023/07/07 03:58:56;;;;;;;6.50;4.40;;;;;;;16.60;100.00;98608.01;104895;1263;61068;-92
2023/07/07 04:01:31;;;;;;;5.40;3.70;;;;;;;16.56;100.00;98612.67;105091;1260;75060;-90
2023/07/07 04:03:58;;;;;;;5.60;3.60;;;;;;;16.52;100.00;98610.66;105170;1263;74330;-92
2023/07/07 04:06:27;;;;;;;5.00;4.50;;;;;;;16.49;100.00;98612.64;105169;1267;72551;-93
2023/07/07 04:09:01;;;;;;;5.30;4.10;;;;;;;16.45;100.00;98609.57;105137;1268;61373;-94
2023/07/07 04:11:30;;;;;;;4.80;3.80;;;;;;;16.39;100.00;98612.94;105162;1265;62368;-95
2023/07/07 04:14:01;;;;;;;3.50;3.20;;;;;;;16.33;100.00;98615.83;105037;1261;73487;-94
2023/07/07 04:16:32;;;;;;;7.40;4.20;;;;;;;16.28;100.00;98620.60;106342;1267;74296;-95
2023/07/07 04:19:02;;;;;;;4.80;3.80;;;;;;;16.24;100.00;98625.33;105577;1261;71414;-94
2023/07/07 04:21:30;;;;;;;4.50;4.00;;;;;;;16.21;100.00;98628.14;105039;1267;61179;-94
2023/07/07 04:24:00;;;;;;;6.00;4.10;;;;;;;16.15;100.00;98628.23;104959;1261;61147;-94
2023/07/07 04:26:32;;;;;;;7.10;4.10;;;;;;;16.12;100.00;98624.27;105359;1261;73714;-94
2023/07/07 04:29:10;;;;;;;4.80;3.90;;;;;;;16.08;100.00;98623.86;105692;1258;73987;-93
2023/07/07 04:31:54;;;;;;;6.00;3.80;;;;;;;16.04;100.00;98625.48;105950;1256;72973;-93
2023/07/07 04:34:27;;;;;;;7.10;3.40;;;;;;;16.01;100.00;98625.55;106500;1256;60558;-94
2023/07/07 04:37:03;;;;;;;5.80;4.20;;;;;;;15.99;100.00;98627.57;107819;1256;61110;-93
2023/07/07 04:39:42;;;;;;;6.00;4.40;;;;;;;15.96;100.00;98630.35;108416;1257;71943;-92
2023/07/07 04:42:16;;;;;;;7.60;4.00;;;;;;;15.96;100.00;98632.89;106993;1256;74246;-90
2023/07/07 04:44:48;;;;;;;5.00;4.00;;;;;;;15.97;100.00;98634.25;107303;1256;71692;-92
2023/07/07 04:47:29;;;;;;;4.60;3.60;;;;;;;15.96;100.00;98633.06;108957;1256;61660;-91
2023/07/07 04:49:57;;;;;;;4.20;3.20;;;;;;;15.97;100.00;98639.13;109195;1256;60946;-92
2023/07/07 04:52:31;;;;;;;6.50;5.00;;;;;;;15.98;100.00;98638.69;107668;1258;72686;-92
2023/07/07 04:54:59;;;;;;;6.30;4.00;;;;;;;15.99;100.00;98642.48;108098;1256;73157;-92
2023/07/07 04:57:36;;;;;;;4.90;3.70;;;;;;;16.01;100.00;98640.36;108858;1256;71415;-90
2023/07/07 05:00:09;;;;;;;4.60;3.90;;;;;;;16.03;100.00;98645.02;108893;1256;62039;-88
2023/07/07 05:02:53;;;;;;;7.60;3.50;;;;;;;16.07;100.00;98650.82;108538;1257;59480;-91
2023/07/07 05:25:42;;;;;;;5.70;5.00;;;;;;;16.16;100.00;98662.88;104599;1272;61147;-94
2023/07/07 05:59:16;;;;;;;6.30;4.30;;;;;;;16.54;100.00;98688.40;106677;1280;71173;-94
2023/07/07 06:13:33;;;;;;;4.50;3.70;;;;;;;16.76;100.00;98696.65;99305;1276;69659;-89
2023/07/07 06:16:01;;;;;;;6.50;4.60;;;;;;;16.80;100.00;98697.89;106779;1282;71188;-90
2023/07/07 06:18:43;;;;;;;6.00;4.30;;;;;;;16.85;100.00;98693.65;105886;1282;61949;-89
2023/07/07 06:21:11;;;;;;;5.10;4.60;;;;;;;16.90;100.00;98693.61;104775;1284;61249;-89
2023/07/07 06:23:39;;;;;;;7.90;4.80;;;;;;;16.94;100.00;98700.61;105652;1288;73686;-89
2023/07/07 06:26:06;;;;;;;8.40;5.00;;;;;;;16.99;100.00;98697.82;106851;1285;74310;-90
2023/07/07 06:28:40;;;;;;;5.90;4.80;;;;;;;17.03;100.00;98702.38;106767;1282;72501;-92
2023/07/07 06:31:08;;;;;;;7.00;4.60;;;;;;;17.06;100.00;98706.39;106859;1281;60650;-91
2023/07/07 06:33:36;;;;;;;8.20;4.50;;;;;;;17.10;100.00;98704.45;106782;1282;60336;-92
2023/07/07 06:36:03;;;;;;;8.70;5.00;;;;;;;17.13;100.00;98704.32;106742;1282;72769;-91
2023/07/07 06:38:32;;;;;;;6.80;4.30;;;;;;;17.17;100.00;98701.45;106851;1281;73158;-93
2023/07/07 06:41:04;;;;;;;5.60;4.10;;;;;;;17.21;100.00;98702.52;104627;1289;73151;-92
2023/07/07 06:43:31;;;;;;;6.60;4.50;;;;;;;17.25;100.00;98705.20;104413;1283;61091;-93
2023/07/07 06:46:05;;;;;;;4.80;4.30;;;;;;;17.29;100.00;98706.40;104382;1285;61150;-95
2023/07/07 06:48:41;;;;;;;6.00;4.00;;;;;;;17.34;100.00;98707.43;103991;1288;73255;-93
2023/07/07 06:51:10;;;;;;;5.50;4.70;;;;;;;17.37;100.00;98706.10;104560;1286;73417;-93
2023/07/07 06:53:40;;;;;;;7.10;4.50;;;;;;;17.41;100.00;98710.64;104471;1288;72821;-90
2023/07/07 06:56:11;;;;;;;5.10;4.20;;;;;;;17.45;100.00;98709.92;104865;1283;61116;-92
2023/07/07 06:58:46;;;;;;;4.50;4.10;;;;;;;17.47;100.00;98707.35;104528;1282;61281;-92
2023/07/07 07:01:24;;;;;;;5.90;5.20;;;;;;;17.50;100.00;98705.76;103982;1287;74958;-93
2023/07/07 07:03:52;;;;;;;15.70;4.90;;;;;;;17.55;100.00;98705.83;103892;1287;75793;-90
2023/07/07 07:06:22;;;;;;;5.20;3.90;;;;;;;17.60;100.00;98708.89;103957;1289;73217;-92
2023/07/07 07:08:52;;;;;;;3.20;3.00;;;;;;;17.64;100.00;98711.55;104544;1286;62030;-94
2023/07/07 07:11:26;;;;;;;10.20;4.60;;;;;;;17.67;100.00;98712.73;103911;1283;61131;-95
2023/07/07 07:14:16;;;;;;;4.30;3.90;;;;;;;17.71;100.00;98716.33;103982;1284;72502;-93
2023/07/07 07:17:09;;;;;;;7.50;5.10;;;;;;;17.74;100.00;98721.29;104478;1286;73739;-93
2023/07/07 07:19:51;;;;;;;6.90;3.70;;;;;;;17.78;100.00;98725.86;104445;1276;73890;-93
2023/07/07 07:29:07;;;;;;;8.50;4.80;;;;;;;17.84;100.00;98730.50;99250;1280;74941;-90
2023/07/07 07:32:09;;;;;;;8.60;4.90;;;;;;;17.88;100.00;98729.06;105119;1283;75225;-94
2023/07/07 07:39:56;;;;;;;5.90;5.00;;;;;;;17.99;100.00;98741.26;104182;1291;60373;-92
2023/07/07 07:42:29;;;;;;;7.90;5.30;;;;;;;18.01;100.00;98743.59;103600;1291;61074;-92
2023/07/07 07:45:31;;;;;;;;;;;;;;;;;;;;;
2023/07/07 07:53:12;;;;;;;5.80;4.30;;;;;;;18.19;100.00;98750.07;105851;1276;62369;-94
2023/07/07 07:56:21;;;;;;;6.10;4.80;;;;;;;18.22;100.00;98753.39;105142;1277;61498;-93
2023/07/07 07:59:56;;;;;;;5.50;4.60;;;;;;;18.22;100.00;98757.06;104053;1286;71459;-91
2023/07/07 08:02:25;;;;;;;6.20;5.20;;;;;;;18.22;100.00;98754.17;104031;1280;651015;-92
2023/07/07 08:04:53;;;;;;;5.80;5.00;;;;;;;18.22;100.00;98753.39;104311;1289;73446;-92
2023/07/07 08:07:25;;;;;;;6.40;4.90;;;;;;;18.22;100.00;98753.73;104700;1286;62229;-90
2023/07/07 08:10:25;;;;;;;5.20;4.60;;;;;;;18.23;100.00;98754.38;103963;1280;61036;-92
2023/07/07 08:12:52;;;;;;;6.30;4.90;;;;;;;18.24;100.00;98759.92;103993;1285;73365;-92
2023/07/07 08:15:23;;;;;;;7.60;4.90;;;;;;;18.24;100.00;98761.71;104650;1286;75322;-92
2023/07/07 08:18:00;;;;;;;5.20;4.70;;;;;;;18.24;100.00;98762.80;104541;1274;73737;-91
2023/07/07 08:20:30;;;;;;;5.50;5.00;;;;;;;18.25;100.00;98768.02;104576;1275;62165;-92
2023/07/07 08:23:02;;;;;;;5.80;4.90;;;;;;;18.22;100.00;98766.77;105515;1274;61165;-91
2023/07/07 08:25:34;;;;;;;7.10;5.00;;;;;;;18.21;100.00;98766.51;105737;1280;74127;-90
2023/07/07 08:28:01;;;;;;;5.40;4.60;;;;;;;18.20;100.00;98766.63;107013;1274;74712;-92
2023/07/07 08:30:31;;;;;;;9.50;5.00;;;;;;;18.19;100.00;98768.38;107147;1275;73009;-92
2023/07/07 08:33:04;;;;;;;5.60;4.40;;;;;;;18.19;100.00;98767.45;107235;1275;60876;-92
2023/07/07 08:35:33;;;;;;;6.10;5.20;;;;;;;18.21;100.00;98770.35;107426;1276;59289;-93
2023/07/07 08:38:08;;;;;;;5.50;4.80;;;;;;;18.25;100.00;98769.26;105235;1265;75761;-90
2023/07/07 08:40:47;;;;;;;7.70;5.60;;;;;;;18.28;100.00;98771.30;105224;1266;75156;-90
2023/07/07 08:43:22;;;;;;;4.90;4.50;;;;;;;18.32;100.00;98777.31;105177;1271;72584;-92
2023/07/07 08:46:08;;;;;;;5.80;5.10;;;;;;;18.34;100.00;98775.13;105243;1266;61829;-91
2023/07/07 08:48:53;;;;;;;6.40;5.20;;;;;;;18.38;100.00;98779.44;106615;1268;61116;-93
2023/07/07 08:51:22;;;;;;;7.00;6.00;;;;;;;18.41;100.00;98778.83;106297;1271;73967;-93
2023/07/07 08:53:55;;;;;;;6.60;5.50;;;;;;;18.44;100.00;98779.09;105296;1266;73867;-94
2023/07/07 08:56:50;;;;;;;9.60;6.40;;;;;;;18.47;100.00;98776.65;105436;1267;71848;-91
2023/07/07 08:59:53;;;;;;;7.10;5.50;;;;;;;18.50;100.00;98776.27;106044;1271;62088;-94
2023/07/07 09:07:06;;;;;;;5.80;5.20;;;;;;;18.56;100.00;98778.08;107499;1257;72195;-96
2023/07/07 09:10:16;;;;;;;7.30;5.90;;;;;;;18.58;100.00;98781.34;106399;1259;72929;-94
2023/07/07 09:13:12;;;;;;;5.90;5.10;;;;;;;18.63;100.00;98781.92;105890;1259;71187;-93
2023/07/07 09:15:42;;;;;;;5.90;5.30;;;;;;;18.69;100.00;98780.61;106322;1262;63050;-91
2023/07/07 09:18:22;;;;;;;7.80;5.60;;;;;;;18.77;100.00;98786.19;105794;1262;61040;-94
2023/07/07 09:20:53;;;;;;;7.00;6.10;;;;;;;18.87;100.00;98786.20;105583;1265;71151;-92
2023/07/07 09:23:25;;;;;;;9.00;5.50;;;;;;;18.97;100.00;98783.92;106070;1259;74742;-92
2023/07/07 09:33:07;;;;;;;6.60;5.80;;;;;;;19.35;100.00;98781.32;104226;1273;60694;-93
2023/07/07 09:39:45;;;;;;;5.80;5.30;;;;;;;19.54;100.00;98782.53;106127;1285;73802;-95
2023/07/07 09:42:40;;;;;;;8.80;5.70;;;;;;;19.63;100.00;98786.84;105157;1282;73459;-93
2023/07/07 09:45:27;;;;;;;5.00;4.60;;;;;;;19.70;100.00;98791.38;105154;1282;62191;-91
2023/07/07 09:48:19;;;;;;;6.40;5.50;;;;;;;19.77;100.00;98792.02;106460;1283;59426;-90
2023/07/07 09:51:19;;;;;;;6.10;5.50;;;;;;;19.83;100.00;98792.13;106399;1282;74004;-94
2023/07/07 09:58:57;;;;;;;6.50;5.70;;;;;;;19.92;100.00;98794.38;107046;1271;71324;-94
2023/07/07 10:01:28;;;;;;;5.10;4.70;;;;;;;19.93;100.00;98800.42;104438;1280;61130;-94
2023/07/07 10:03:57;;;;;;;8.00;5.30;;;;;;;19.94;100.00;98803.55;104692;1285;61488;-93
2023/07/07 10:06:47;;;;;;;6.30;5.70;;;;;;;19.96;100.00;98803.71;104817;1285;74191;-86
2023/07/07 10:09:14;;;;;;;7.80;5.90;;;;;;;19.99;100.00;98804.18;104372;1280;73237;-91
2023/07/07 10:11:46;;;;;;;6.70;5.50;;;;;;;20.02;100.00;98808.94;104446;1285;71417;-92
2023/07/07 10:14:37;;;;;;;6.30;5.40;;;;;;;20.06;100.00;98810.21;104323;1280;62299;-92
2023/07/07 10:17:08;;;;;;;6.10;5.40;;;;;;;20.08;100.00;98809.58;104356;1279;61304;-92
2023/07/07 10:19:51;;;;;;;5.60;5.10;;;;;;;20.11;100.00;98812.51;104573;1279;71344;-92
2023/07/07 10:22:19;;;;;;;6.20;5.60;;;;;;;20.15;100.00;98814.89;105206;1285;73250;-91
2023/07/07 10:24:49;;;;;;;6.50;5.80;;;;;;;20.19;100.00;98810.66;106187;1284;74976;-93
2023/07/07 10:27:24;;;;;;;6.80;5.90;;;;;;;20.27;100.00;98811.27;106273;1277;60988;-93
2023/07/07 10:30:05;;;;;;;5.30;4.80;;;;;;;20.40;100.00;98812.13;107031;1280;61419;-91
2023/07/07 10:32:33;;;;;;;7.60;5.30;;;;;;;20.54;100.00;98811.61;107372;1280;72281;-89
2023/07/07 10:37:52;;;;;;;7.30;5.80;;;;;;;20.93;100.00;98818.11;103995;1292;599943;-91
2023/07/07 10:40:25;;;;;;;6.20;5.50;;;;;;;21.09;100.00;98815.63;105313;1267;61774;-89
2023/07/07 10:42:54;;;;;;;7.50;4.70;;;;;;;21.25;100.00;98811.77;105939;1266;61094;-89
2023/07/07 10:45:26;;;;;;;5.70;5.10;;;;;;;21.40;100.00;98817.13;107237;1260;72233;-93
2023/07/07 10:47:53;;;;;;;5.60;5.00;;;;;;;21.56;100.00;98813.44;105942;1266;74075;-90
2023/07/07 10:50:22;;;;;;;7.70;4.90;;;;;;;21.72;100.00;98814.23;105566;1263;161633;-92
2023/07/07 10:53:02;;;;;;;5.70;4.20;;;;;;;21.88;100.00;98812.44;106306;1264;64118;-89
2023/07/07 10:55:57;;;;;;;5.50;4.10;;;;;;;22.06;98.32;98814.71;106044;1257;60997;-89
2023/07/07 10:58:31;;;;;;;5.60;4.10;;;;;;;22.21;94.76;98819.03;105872;1257;73082;-89
2023/07/07 11:01:28;;;;;;;4.40;4.00;;;;;;;22.33;90.46;98818.29;105747;1262;73670;-91
2023/07/07 11:04:23;;;;;;;4.80;4.30;;;;;;;22.43;89.85;98819.02;107353;1257;73383;-89
2023/07/07 11:07:24;;;;;;;4.70;3.40;;;;;;;22.55;87.91;98818.73;106126;1256;61686;-90
2023/07/07 11:10:00;;;;;;;4.00;3.70;;;;;;;22.69;86.16;98819.58;106462;1256;60991;-89
2023/07/07 11:12:38;;;;;;;5.00;3.50;;;;;;;22.81;83.79;98823.55;106211;1262;73347;-88
2023/07/07 11:15:34;;;;;;;4.30;3.80;;;;;;;22.93;84.51;98824.10;106417;1257;74482;-92
2023/07/07 11:18:08;;;;;;;6.60;3.30;;;;;;;23.07;83.51;98822.77;106781;1259;71405;-89
2023/07/07 11:21:00;;;;;;;4.30;3.40;;;;;;;23.18;80.27;98819.33;106579;1259;61291;-92
2023/07/07 11:23:53;;;;;;;3.80;3.20;;;;;;;23.28;78.17;98824.32;108401;1255;61166;-88
2023/07/07 11:26:59;;;;;;;4.10;3.10;;;;;;;23.38;76.20;98821.91;108654;1254;73271;-90
2023/07/07 11:29:49;;;;;;;4.80;3.30;;;;;;;23.49;74.66;98821.65;109218;1255;74303;-88
2023/07/07 11:32:41;;;;;;;8.60;3.10;;;;;;;23.59;74.30;98815.33;108304;1255;72486;-89
2023/07/07 11:35:19;;;;;;;3.30;2.80;;;;;;;23.68;72.02;98818.64;107578;1256;61071;-90
2023/07/07 11:37:55;;;;;;;2.90;2.60;;;;;;;23.75;71.22;98811.69;107117;1257;61178;-90
2023/07/07 11:40:44;;;;;;;3.20;2.90;;;;;;;23.83;71.39;98816.77;106313;1257;73677;-88
2023/07/07 11:43:18;;;;;;;3.80;2.70;;;;;;;23.89;71.69;98821.73;106545;1257;74341;-91
2023/07/07 11:46:17;;;;;;;2.50;2.00;;;;;;;23.95;68.57;98815.67;106996;1257;72132;-90
2023/07/07 11:49:13;;;;;;;5.30;2.20;;;;;;;24.03;66.41;98816.73;106633;1257;61911;-90
2023/07/07 11:52:15;;;;;;;2.60;2.30;;;;;;;24.13;66.49;98813.52;106590;1262;61783;-91
2023/07/07 11:54:46;;;;;;;4.10;2.60;;;;;;;24.24;66.49;98811.34;106712;1269;74302;-87
2023/07/07 11:57:27;;;;;;;4.10;2.50;;;;;;;24.32;65.33;98808.11;106830;1268;73288;-90
2023/07/07 12:00:25;;;;;;;5.00;2.90;;;;;;;24.39;64.78;98805.52;106274;1271;71692;-90
2023/07/07 12:03:03;;;;;;;;;;;;;;;24.44;64.20;98801.73;106926;1270;60967;-89
2023/07/07 12:05:43;;;;;;;3.90;2.60;;;;;;;24.45;64.36;98800.47;107085;1269;61125;-90
2023/07/07 12:08:15;;;;;;;2.90;2.50;;;;;;;24.47;63.89;98795.48;105993;1272;73146;-89
2023/07/07 12:10:49;;;;;;;4.40;3.10;;;;;;;24.49;64.12;98793.78;105769;1272;75367;-89
2023/07/07 12:13:34;;;;;;;4.30;3.00;;;;;;;24.50;63.90;98790.55;106439;1270;72585;-91
2023/07/07 12:16:21;;;;;;;3.00;2.70;;;;;;;24.52;63.82;98789.42;106522;1271;61297;-89
2023/07/07 12:19:17;;;;;;;4.20;3.60;;;;;;;24.56;63.78;98787.36;108202;1270;59148;-88
2023/07/07 12:21:49;;;;;;;3.10;2.70;;;;;;;24.61;63.42;98784.20;107864;1270;73416;-89
2023/07/07 12:24:46;;;;;;;3.50;2.90;;;;;;;24.68;63.66;98783.37;108181;1270;73567;-89
2023/07/07 12:27:21;;;;;;;4.20;3.10;;;;;;;24.75;63.94;98784.84;108050;1271;70757;-89
2023/07/07 12:29:53;;;;;;;4.60;3.60;;;;;;;24.86;64.18;98785.92;108464;1264;59611;-90
2023/07/07 12:32:36;;;;;;;3.40;2.90;;;;;;;25.00;65.01;98783.12;108768;1257;59460;-91
2023/07/07 12:35:35;;;;;;;3.50;3.10;;;;;;;25.10;63.82;98779.45;108728;1258;71811;-89
2023/07/07 12:38:26;;;;;;;3.80;2.40;;;;;;;25.30;64.17;98775.16;108385;1259;72445;-90
2023/07/07 12:41:21;;;;;;;3.00;2.30;;;;;;;25.50;61.38;98781.64;108518;1260;73139;-88
2023/07/07 12:43:59;;;;;;;4.20;2.20;;;;;;;25.71;59.67;98773.23;108736;1257;59318;-90
2023/07/07 12:46:36;;;;;;;2.80;2.50;;;;;;;25.92;57.74;98775.42;108523;1257;61011;-89
2023/07/07 12:49:16;;;;;;;3.40;2.20;;;;;;;26.11;57.09;98766.89;108881;1257;73404;-91
2023/07/07 12:51:54;;;;;;;3.80;2.60;;;;;;;26.28;57.14;98768.58;108317;1257;75257;-88
2023/07/07 12:55:03;;;;;;;3.00;2.50;;;;;;;26.43;56.02;98768.00;107912;1258;72794;-87
2023/07/07 13:02:39;;;;;;;7.40;2.20;;;;;;;26.80;50.89;98775.92;107816;1263;61362;-88
2023/07/07 13:05:21;;;;;;;2.90;2.00;;;;;;;26.87;50.99;98778.63;106895;1263;74956;-88
2023/07/07 13:08:04;;;;;;;2.90;1.70;;;;;;;26.91;48.49;98783.42;106583;1263;74648;-90
2023/07/07 13:11:01;;;;;;;;;;;;;;;;;;;;;
2023/07/07 13:15:42;;;;;;;8.90;1.80;;;;;;;26.76;46.61;98789.47;105836;1279;61019;-91
2023/07/07 13:19:25;;;;;;;2.40;1.90;;;;;;;26.58;47.85;98795.98;104944;1283;61099;-90
2023/07/07 13:25:35;;;;;;;2.50;1.70;;;;;;;26.41;47.83;98793.48;104706;1289;74382;-89
2023/07/07 13:28:19;;;;;;;3.20;1.80;;;;;;;26.36;48.57;98797.91;103610;1294;600252;-89
2023/07/07 13:30:58;;;;;;;1.70;1.50;;;;;;;26.29;49.35;98793.40;105555;1269;61183;-88
2023/07/07 13:33:28;;;;;;;2.20;1.80;;;;;;;26.26;49.14;98793.70;105666;1269;60974;-88
2023/07/07 13:35:59;;;;;;;2.10;1.70;;;;;;;26.22;49.12;98794.02;105781;1269;73091;-89
2023/07/07 13:38:32;;;;;;;3.00;2.20;;;;;;;26.16;49.35;98797.52;105463;1272;75685;-88
2023/07/07 13:41:01;;;;;;;3.40;2.10;;;;;;;26.12;49.89;98803.05;105356;1270;149444;-89
2023/07/07 13:43:34;;;;;;;3.80;2.00;;;;;;;26.07;50.08;98805.34;105768;1265;61054;-88
2023/07/07 13:46:12;;;;;;;2.70;1.80;;;;;;;26.02;49.79;98803.95;105705;1267;61164;-88
2023/07/07 13:48:42;;;;;;;3.50;2.10;;;;;;;25.95;49.73;98802.19;105831;1266;72406;-88
2023/07/07 13:51:24;;;;;;;2.80;2.30;;;;;;;25.87;49.56;98799.02;106146;1268;75896;-90
2023/07/07 13:54:14;;;;;;;3.70;2.50;;;;;;;25.76;49.70;98802.66;106017;1266;73506;-87
2023/07/07 13:56:47;;;;;;;3.10;1.80;;;;;;;25.66;49.68;98800.05;105802;1263;61173;-88
2023/07/07 13:59:19;;;;;;;2.50;1.80;;;;;;;25.56;50.53;98801.17;105860;1267;60988;-87
2023/07/07 14:01:49;;;;;;;3.10;2.00;;;;;;;25.49;50.85;98794.99;106191;1257;72203;-86
2023/07/07 14:04:22;;;;;;;3.60;2.00;;;;;;;25.43;50.95;98793.90;106571;1257;75507;-87
2023/07/07 14:06:53;;;;;;;1.70;1.60;;;;;;;25.39;51.05;98793.51;106696;1259;72762;-87
2023/07/07 14:09:38;;;;;;;3.20;1.60;;;;;;;25.35;50.83;98795.07;106747;1253;60950;-87
2023/07/07 14:12:10;;;;;;;6.50;1.80;;;;;;;25.32;51.34;98797.48;106612;1253;61049;-86